Time;durP1;ratioP1;P1;durP2;ratioP2;P2;SDS_P1;SDS_P2;PMS_P1;PMS_P2;Temp;Humidity;BMP_temperature;BMP_pressure;BME280_temperature;BME280_humidity;BME280_pressure;Samples;Min_cycle;Max_cycle;Signal;HPM_P1;HPM_P2
2024/04/20 00:00:39;;;;;;;5.60;1.83;;;;;;;-141.50;100.00;63355.56;5368460;26;20004;-78
2024/04/20 00:03:11;;;;;;;2.92;1.52;;;;;;;-141.50;100.00;63355.56;5363395;26;20000;-77
2024/04/20 00:05:43;;;;;;;5.85;1.90;;;;;;;-141.50;100.00;63355.56;5346788;26;20008;-77
2024/04/20 00:08:11;;;;;;;3.88;1.52;;;;;;;-141.50;100.00;63355.56;5349241;26;20005;-77
2024/04/20 00:10:38;;;;;;;4.55;1.67;;;;;;;-141.50;100.00;63355.56;5359531;26;20005;-80
2024/04/20 00:13:05;;;;;;;6.07;1.67;;;;;;;-141.50;100.00;63355.56;5362921;26;20016;-81
2024/04/20 00:15:32;;;;;;;5.13;1.77;;;;;;;-141.50;100.00;63355.56;5367833;26;20036;-80
2024/04/20 00:17:59;;;;;;;3.22;1.80;;;;;;;-141.50;100.00;63355.56;5375314;26;19996;-80
2024/04/20 00:20:31;;;;;;;5.05;1.80;;;;;;;-141.50;100.00;63355.56;5365820;26;20005;-79
2024/04/20 00:22:59;;;;;;;5.80;2.08;;;;;;;-141.50;100.00;63355.56;5377462;26;20025;-79
2024/04/20 00:25:26;;;;;;;5.63;2.20;;;;;;;-141.50;100.00;63355.56;5375735;26;20466;-80
2024/04/20 00:27:53;;;;;;;4.28;2.20;;;;;;;-141.50;100.00;63355.56;5377644;26;20000;-77
2024/04/20 00:30:21;;;;;;;5.25;2.70;;;;;;;-141.50;100.00;63355.56;5371555;26;20008;-79
2024/04/20 00:32:48;;;;;;;3.72;2.17;;;;;;;-141.50;100.00;63355.56;5376199;26;20077;-81
2024/04/20 00:35:18;;;;;;;4.20;2.10;;;;;;;-141.50;100.00;63355.56;5353991;26;20032;-80
2024/04/20 00:37:45;;;;;;;6.10;2.25;;;;;;;-141.50;100.00;63355.56;5363582;26;20004;-80
2024/04/20 00:40:14;;;;;;;2.60;1.67;;;;;;;-141.50;100.00;63355.56;5367358;26;19996;-78
2024/04/20 00:42:43;;;;;;;3.30;1.95;;;;;;;-141.50;100.00;63355.56;5377230;26;20008;-78
2024/04/20 00:45:10;;;;;;;4.35;2.10;;;;;;;-141.50;100.00;63355.56;5362912;26;20004;-79
2024/04/20 00:47:38;;;;;;;5.00;2.20;;;;;;;-141.50;100.00;63355.56;5362827;26;20055;-77
2024/04/20 00:50:07;;;;;;;7.28;2.80;;;;;;;-141.50;100.00;63355.56;5364896;26;20036;-80
2024/04/20 00:52:35;;;;;;;4.68;2.70;;;;;;;-141.50;100.00;63355.56;5363455;26;20005;-80
2024/04/20 00:55:04;;;;;;;6.10;3.08;;;;;;;-141.50;100.00;63355.56;5392719;26;20004;-81
2024/04/20 00:57:32;;;;;;;4.22;2.60;;;;;;;-141.50;100.00;63355.56;5368655;26;20020;-80
2024/04/20 00:59:59;;;;;;;11.73;3.20;;;;;;;-141.50;100.00;63355.56;5360789;26;20019;-81
2024/04/20 01:02:28;;;;;;;5.53;2.72;;;;;;;-141.50;100.00;63355.56;5372139;26;20008;-80
2024/04/20 01:04:57;;;;;;;7.43;2.75;;;;;;;-141.50;100.00;63355.56;5373197;26;20008;-80
2024/04/20 01:07:24;;;;;;;7.78;2.92;;;;;;;-141.50;100.00;63355.56;5338105;26;20008;-77
2024/04/20 01:09:51;;;;;;;4.72;3.10;;;;;;;-141.50;100.00;63355.56;5340129;26;20005;-78
2024/04/20 01:12:18;;;;;;;5.18;2.90;;;;;;;-141.50;100.00;63355.56;5363477;26;20008;-79
2024/04/20 01:14:45;;;;;;;5.15;3.05;;;;;;;-141.50;100.00;63355.56;5344759;26;20024;-78
2024/04/20 01:17:12;;;;;;;7.43;3.28;;;;;;;-141.50;100.00;63355.56;5360995;26;20015;-78
2024/04/20 01:19:43;;;;;;;6.18;3.20;;;;;;;-141.50;100.00;63355.56;5347051;26;20020;-77
2024/04/20 01:22:18;;;;;;;5.70;3.40;;;;;;;-141.50;100.00;63355.56;5340858;26;20013;-80
2024/04/20 01:24:46;;;;;;;5.07;2.83;;;;;;;-141.50;100.00;63355.56;5363563;26;20020;-81
2024/04/20 01:27:13;;;;;;;7.22;3.40;;;;;;;-141.50;100.00;63355.56;5348940;26;20023;-80
2024/04/20 01:29:40;;;;;;;5.65;3.08;;;;;;;-141.50;100.00;63355.56;5362503;26;20483;-83
2024/04/20 01:32:07;;;;;;;8.32;3.08;;;;;;;-141.50;100.00;63355.56;5371166;26;20016;-81
2024/04/20 01:34:35;;;;;;;4.40;2.92;;;;;;;-141.50;100.00;63355.56;5370444;26;20078;-79
2024/04/20 01:37:02;;;;;;;4.95;2.97;;;;;;;-141.50;100.00;63355.56;5363366;26;20458;-79
2024/04/20 01:39:29;;;;;;;5.22;2.78;;;;;;;-141.50;100.00;63355.56;5356756;26;20011;-80
2024/04/20 01:41:59;;;;;;;6.28;3.40;;;;;;;-141.50;100.00;63355.56;5368531;26;20040;-80
2024/04/20 01:44:26;;;;;;;5.00;2.83;;;;;;;-141.50;100.00;63355.56;5379005;26;20000;-80
2024/04/20 01:46:54;;;;;;;5.50;2.90;;;;;;;-141.50;100.00;63355.56;5359924;26;20009;-80
2024/04/20 01:49:22;;;;;;;4.43;2.47;;;;;;;-141.50;100.00;63355.56;5335748;26;20482;-77
2024/04/20 01:51:49;;;;;;;5.43;2.92;;;;;;;-141.50;100.00;63355.56;5343361;26;20059;-80
2024/04/20 01:54:16;;;;;;;4.90;2.80;;;;;;;-141.50;100.00;63355.56;5338829;26;20016;-80
2024/04/20 01:56:43;;;;;;;4.03;2.42;;;;;;;-141.50;100.00;63355.56;5304580;26;19997;-79
2024/04/20 01:59:11;;;;;;;3.05;1.83;;;;;;;-141.50;100.00;63355.56;5337307;26;20005;-79
2024/04/20 02:01:41;;;;;;;2.90;2.00;;;;;;;-141.50;100.00;63355.56;5339537;26;20083;-79
2024/04/20 02:04:09;;;;;;;2.63;1.60;;;;;;;-141.50;100.00;63355.56;5336680;26;20012;-80
2024/04/20 02:06:36;;;;;;;2.20;1.40;;;;;;;-141.50;100.00;63355.56;5338419;26;20312;-79
2024/04/20 02:09:03;;;;;;;2.08;1.23;;;;;;;-141.50;100.00;63355.56;5338508;26;20018;-81
2024/04/20 02:11:31;;;;;;;3.67;1.13;;;;;;;-141.50;100.00;63355.56;5334098;26;20016;-80
2024/04/20 02:13:58;;;;;;;2.05;1.20;;;;;;;-141.50;100.00;63355.56;5340551;26;19997;-80
2024/04/20 02:16:25;;;;;;;2.10;1.42;;;;;;;-141.50;100.00;63355.56;5365933;26;20000;-80
2024/04/20 02:18:52;;;;;;;2.00;1.40;;;;;;;-141.50;100.00;63355.56;5361933;26;20028;-81
2024/04/20 02:21:20;;;;;;;1.80;0.90;;;;;;;-141.50;100.00;63355.56;5346051;26;23239;-82
2024/04/20 02:23:47;;;;;;;1.55;0.85;;;;;;;-141.50;100.00;63355.56;5377553;26;20089;-81
2024/04/20 02:26:14;;;;;;;1.38;0.98;;;;;;;-141.50;100.00;63355.56;5361953;26;20179;-80
2024/04/20 02:28:42;;;;;;;1.52;0.98;;;;;;;-141.50;100.00;63355.56;5370982;26;20000;-82
2024/04/20 02:31:09;;;;;;;1.42;1.02;;;;;;;-141.50;100.00;63355.56;5358110;26;20016;-80
2024/04/20 02:33:36;;;;;;;2.00;1.30;;;;;;;-141.50;100.00;63355.56;5360445;26;20440;-81
2024/04/20 02:36:04;;;;;;;1.90;1.20;;;;;;;-141.50;100.00;63355.56;5375619;26;20453;-80
2024/04/20 02:38:31;;;;;;;1.95;1.20;;;;;;;-141.50;100.00;63355.56;5364526;26;20404;-79
2024/04/20 02:40:59;;;;;;;1.52;1.08;;;;;;;-141.50;100.00;63355.56;5374068;26;20403;-81
2024/04/20 02:43:26;;;;;;;2.13;1.10;;;;;;;-141.50;100.00;63355.56;5356681;26;20077;-78
2024/04/20 02:45:53;;;;;;;1.80;1.20;;;;;;;-141.50;100.00;63355.56;5364647;26;20034;-81
2024/04/20 02:48:21;;;;;;;1.70;1.23;;;;;;;-141.50;100.00;63355.56;5371252;26;20012;-81
2024/04/20 02:50:49;;;;;;;1.77;0.95;;;;;;;-141.50;100.00;63355.56;5333083;26;20005;-79
2024/04/20 02:53:16;;;;;;;1.17;0.85;;;;;;;-141.50;100.00;63355.56;5361598;26;20009;-80
2024/04/20 02:55:43;;;;;;;2.28;1.25;;;;;;;-141.50;100.00;63355.56;5356355;26;20008;-79
2024/04/20 02:58:10;;;;;;;1.60;1.27;;;;;;;-141.50;100.00;63355.56;5374965;26;20047;-81
2024/04/20 03:00:38;;;;;;;3.70;1.50;;;;;;;-141.50;100.00;63355.56;5304643;26;20484;-78
2024/04/20 03:03:05;;;;;;;2.30;1.50;;;;;;;-141.50;100.00;63355.56;5353720;26;20081;-79
2024/04/20 03:05:32;;;;;;;2.65;1.60;;;;;;;-141.50;100.00;63355.56;5367966;26;20004;-78
2024/04/20 03:08:00;;;;;;;3.15;1.92;;;;;;;-141.50;100.00;63355.56;5377853;26;20011;-78
2024/04/20 03:10:28;;;;;;;2.63;1.75;;;;;;;-141.50;100.00;63355.56;5370199;26;20085;-78
2024/04/20 03:12:55;;;;;;;4.00;1.60;;;;;;;-141.50;100.00;63355.56;5362675;26;20080;-79
2024/04/20 03:15:23;;;;;;;2.00;1.25;;;;;;;-141.50;100.00;63355.56;5370307;26;20016;-79
2024/04/20 03:17:50;;;;;;;1.60;1.10;;;;;;;-141.50;100.00;63355.56;5353707;26;20013;-79
2024/04/20 03:20:17;;;;;;;2.67;1.38;;;;;;;-141.50;100.00;63355.56;5390245;26;20027;-79
2024/04/20 03:22:44;;;;;;;2.30;1.33;;;;;;;-141.50;100.00;63355.56;5377465;26;19996;-81
2024/04/20 03:25:12;;;;;;;3.05;1.30;;;;;;;-141.50;100.00;63355.56;5375387;26;20406;-80
2024/04/20 03:27:40;;;;;;;2.20;1.27;;;;;;;-141.50;100.00;63355.56;5368753;26;20004;-78
2024/04/20 03:30:08;;;;;;;2.10;1.30;;;;;;;-141.50;100.00;63355.56;5357094;26;20434;-81
2024/04/20 03:32:36;;;;;;;2.03;1.23;;;;;;;-141.50;100.00;63355.56;5349675;26;20007;-80
2024/04/20 03:35:04;;;;;;;4.30;1.50;;;;;;;-141.50;100.00;63355.56;5369766;26;20000;-80
2024/04/20 03:37:31;;;;;;;2.88;1.92;;;;;;;-141.50;100.00;63355.56;5361182;26;20005;-80
2024/04/20 03:39:58;;;;;;;3.85;2.00;;;;;;;-141.50;100.00;63355.56;5363069;26;20005;-78
2024/04/20 03:42:27;;;;;;;4.97;2.45;;;;;;;-141.50;100.00;63355.56;5362521;26;20016;-77
2024/04/20 03:44:54;;;;;;;4.18;2.22;;;;;;;-141.50;100.00;63355.56;5371422;26;20058;-78
2024/04/20 03:47:21;;;;;;;4.65;2.38;;;;;;;-141.50;100.00;63355.56;5373889;26;20008;-82
2024/04/20 03:49:48;;;;;;;5.22;2.72;;;;;;;-141.50;100.00;63355.56;5356232;26;20071;-77
2024/04/20 03:52:16;;;;;;;5.20;2.75;;;;;;;-141.50;100.00;63355.56;5391228;26;20009;-81
2024/04/20 03:54:43;;;;;;;3.92;2.28;;;;;;;-141.50;100.00;63355.56;5368077;26;20029;-79
2024/04/20 03:57:10;;;;;;;2.80;1.60;;;;;;;-141.50;100.00;63355.56;5325127;26;20058;-82
2024/04/20 03:59:37;;;;;;;1.90;1.38;;;;;;;-141.50;100.00;63355.56;5359460;26;20434;-79
2024/04/20 04:02:04;;;;;;;3.25;1.25;;;;;;;-141.50;100.00;63355.56;5372973;26;20001;-79
2024/04/20 04:04:31;;;;;;;1.95;0.95;;;;;;;-141.50;100.00;63355.56;5363909;26;20004;-80
2024/04/20 04:06:58;;;;;;;1.40;1.00;;;;;;;-141.50;100.00;63355.56;5368860;26;20001;-78
2024/04/20 04:09:25;;;;;;;1.50;0.93;;;;;;;-141.50;100.00;63355.56;5352816;26;20012;-80
2024/04/20 04:11:52;;;;;;;2.15;1.00;;;;;;;-141.50;100.00;63355.56;5362119;26;20004;-81
2024/04/20 04:14:20;;;;;;;0.95;0.68;;;;;;;-141.50;100.00;63355.56;5357895;26;20023;-80
2024/04/20 04:16:47;;;;;;;3.17;0.63;;;;;;;-141.50;100.00;63355.56;5368542;26;20082;-80
2024/04/20 04:19:14;;;;;;;1.48;0.73;;;;;;;-141.50;100.00;63355.56;5371606;26;20016;-78
2024/04/20 04:21:41;;;;;;;0.60;0.40;;;;;;;-141.50;100.00;63355.56;5369813;26;20012;-79
2024/04/20 04:24:08;;;;;;;0.45;0.30;;;;;;;-141.50;100.00;63355.56;5354320;26;20001;-79
2024/04/20 04:26:35;;;;;;;0.28;0.22;;;;;;;-141.50;100.00;63355.56;5361972;26;20004;-79
2024/04/20 04:29:05;;;;;;;1.38;0.30;;;;;;;-141.50;100.00;63355.56;5363960;26;20011;-80
2024/04/20 04:31:33;;;;;;;0.20;0.20;;;;;;;-141.50;100.00;63355.56;5375978;26;20122;-79
2024/04/20 04:34:00;;;;;;;0.43;0.30;;;;;;;-141.50;100.00;63355.56;5359525;26;19999;-79
2024/04/20 04:36:27;;;;;;;0.75;0.38;;;;;;;-141.50;100.00;63355.56;5386987;26;20016;-80
2024/04/20 04:38:54;;;;;;;3.67;0.98;;;;;;;-141.50;100.00;63355.56;5377010;26;20000;-81
2024/04/20 04:41:21;;;;;;;1.92;1.00;;;;;;;-141.50;100.00;63355.56;5363070;26;20067;-80
2024/04/20 04:43:51;;;;;;;0.68;0.43;;;;;;;-141.50;100.00;63355.56;5367123;26;20004;-81
2024/04/20 04:46:19;;;;;;;1.27;0.60;;;;;;;-141.50;100.00;63355.56;5368422;26;20094;-80
2024/04/20 04:48:46;;;;;;;0.30;0.20;;;;;;;-141.50;100.00;63355.56;5373018;26;20008;-79
2024/04/20 04:51:13;;;;;;;0.30;0.20;;;;;;;-141.50;100.00;63355.56;5353609;26;20037;-79
2024/04/20 04:53:40;;;;;;;0.30;0.20;;;;;;;-141.50;100.00;63355.56;5338601;26;20004;-77
2024/04/20 04:56:07;;;;;;;0.40;0.25;;;;;;;-141.50;100.00;63355.56;5347609;26;20013;-81
2024/04/20 04:58:35;;;;;;;0.35;0.30;;;;;;;-141.50;100.00;63355.56;5363312;26;20028;-81
2024/04/20 05:01:02;;;;;;;1.00;0.57;;;;;;;-141.50;100.00;63355.56;5341461;26;20068;-79
2024/04/20 05:03:31;;;;;;;0.32;0.30;;;;;;;-141.50;100.00;63355.56;5375153;26;20089;-81
2024/04/20 05:06:00;;;;;;;0.30;0.30;;;;;;;-141.50;100.00;63355.56;5369941;26;20044;-82
2024/04/20 05:08:27;;;;;;;0.65;0.30;;;;;;;-141.50;100.00;63355.56;5356327;26;20576;-81
2024/04/20 05:10:55;;;;;;;0.40;0.30;;;;;;;-141.50;100.00;63355.56;5347913;26;20031;-78
2024/04/20 05:13:30;;;;;;;0.50;0.45;;;;;;;-141.50;100.00;63355.56;5363913;26;20071;-77
2024/04/20 05:16:27;;;;;;;0.90;0.45;;;;;;;-141.50;100.00;63355.56;5270611;26;20007;-77
2024/04/20 05:19:11;;;;;;;0.60;0.45;;;;;;;-141.50;100.00;63355.56;5343974;26;20015;-79
2024/04/20 05:21:39;;;;;;;0.50;0.40;;;;;;;-141.50;100.00;63355.56;5361889;26;20067;-80
2024/04/20 05:24:07;;;;;;;0.50;0.30;;;;;;;-141.50;100.00;63355.56;5359796;26;20005;-80
2024/04/20 05:26:34;;;;;;;0.68;0.40;;;;;;;-141.50;100.00;63355.56;5359826;26;20015;-79
2024/04/20 05:29:01;;;;;;;0.82;0.40;;;;;;;-141.50;100.00;63355.56;5321868;26;20077;-80
2024/04/20 05:31:34;;;;;;;0.47;0.30;;;;;;;-141.50;100.00;63355.56;5361046;26;20005;-80
2024/04/20 05:34:02;;;;;;;0.85;0.50;;;;;;;-141.50;100.00;63355.56;5362854;26;20020;-78
2024/04/20 05:36:29;;;;;;;0.55;0.40;;;;;;;-141.50;100.00;63355.56;5360764;26;20033;-79
2024/04/20 05:38:56;;;;;;;0.60;0.40;;;;;;;-141.50;100.00;63355.56;5354899;26;20001;-79
2024/04/20 05:41:23;;;;;;;0.40;0.30;;;;;;;-141.50;100.00;63355.56;5357136;26;20019;-79
2024/04/20 05:43:50;;;;;;;0.77;0.47;;;;;;;-141.50;100.00;63355.56;5358011;26;20004;-81
2024/04/20 05:46:17;;;;;;;1.00;0.50;;;;;;;-141.50;100.00;63355.56;5322699;26;20397;-79
2024/04/20 05:48:44;;;;;;;1.10;0.47;;;;;;;-141.50;100.00;63355.56;5367294;26;20360;-81
2024/04/20 05:51:11;;;;;;;0.65;0.40;;;;;;;-141.50;100.00;63355.56;5334678;26;20275;-80
2024/04/20 05:53:38;;;;;;;0.88;0.68;;;;;;;-141.50;100.00;63355.56;5361287;26;20008;-77
2024/04/20 05:56:06;;;;;;;2.08;0.70;;;;;;;-141.50;100.00;63355.56;5361821;26;20456;-82
2024/04/20 05:58:33;;;;;;;2.00;0.93;;;;;;;-141.50;100.00;63355.56;5365113;26;20450;-81
2024/04/20 06:01:00;;;;;;;1.08;0.80;;;;;;;-141.50;100.00;63355.56;5358128;26;19996;-80
2024/04/20 06:03:27;;;;;;;1.50;1.00;;;;;;;-141.50;100.00;63355.56;5360676;26;20017;-80
2024/04/20 06:05:54;;;;;;;3.33;0.95;;;;;;;-141.50;100.00;63355.56;5358780;26;20009;-82
2024/04/20 06:08:22;;;;;;;2.33;1.10;;;;;;;-141.50;100.00;63355.56;5371355;26;20000;-80
2024/04/20 06:10:56;;;;;;;1.58;0.95;;;;;;;-141.50;100.00;63355.56;5342156;26;20059;-80
2024/04/20 06:13:24;;;;;;;2.08;1.10;;;;;;;-141.50;100.00;63355.56;5353804;26;20008;-80
2024/04/20 06:15:52;;;;;;;1.40;0.98;;;;;;;-141.50;100.00;63355.56;5372290;26;20122;-81
2024/04/20 06:18:19;;;;;;;1.65;1.20;;;;;;;-141.50;100.00;63355.56;5352296;26;20092;-78
2024/04/20 06:20:51;;;;;;;2.20;1.35;;;;;;;-141.50;100.00;63355.56;5375310;26;20013;-79
2024/04/20 06:23:19;;;;;;;2.85;1.60;;;;;;;-141.50;100.00;63355.56;5321929;26;20355;-80
2024/04/20 06:25:48;;;;;;;2.65;1.02;;;;;;;-141.50;100.00;63355.56;5339085;26;20010;-80
2024/04/20 06:28:16;;;;;;;1.20;0.90;;;;;;;-141.50;100.00;63355.56;5363551;26;20414;-79
2024/04/20 06:30:45;;;;;;;1.75;0.90;;;;;;;-141.50;100.00;63355.56;5362566;26;20112;-82
2024/04/20 06:33:13;;;;;;;1.30;0.90;;;;;;;-141.50;100.00;63355.56;5369056;26;20046;-81
2024/04/20 06:35:43;;;;;;;1.73;0.90;;;;;;;-141.50;100.00;63355.56;5355241;26;20330;-80
2024/04/20 06:38:10;;;;;;;1.50;0.90;;;;;;;-141.50;100.00;63355.56;5358200;26;20028;-80
2024/04/20 06:40:37;;;;;;;2.72;1.20;;;;;;;-141.50;100.00;63355.56;5361621;26;20005;-79
2024/04/20 06:43:05;;;;;;;3.22;1.70;;;;;;;-141.50;100.00;63355.56;5364409;26;20452;-81
2024/04/20 06:45:32;;;;;;;1.92;1.10;;;;;;;-141.50;100.00;63355.56;5370242;26;20008;-78
2024/04/20 06:47:59;;;;;;;2.78;1.00;;;;;;;-141.50;100.00;63355.56;5337939;26;20011;-79
2024/04/20 06:50:27;;;;;;;1.40;0.82;;;;;;;-141.50;100.00;63355.56;5357428;26;20297;-78
2024/04/20 06:52:55;;;;;;;1.38;0.80;;;;;;;-141.50;100.00;63355.56;5360978;26;20052;-80
2024/04/20 06:55:22;;;;;;;2.60;1.38;;;;;;;-141.50;100.00;63355.56;5370675;26;20346;-78
2024/04/20 06:57:50;;;;;;;4.13;1.10;;;;;;;-141.50;100.00;63355.56;5372512;26;20000;-78
2024/04/20 07:00:18;;;;;;;4.53;1.30;;;;;;;-141.50;100.00;63355.56;5363769;26;20148;-81
2024/04/20 07:02:45;;;;;;;2.08;1.10;;;;;;;-141.50;100.00;63355.56;5352640;26;20005;-81
2024/04/20 07:05:12;;;;;;;3.63;1.30;;;;;;;-141.50;100.00;63355.56;5376282;26;20055;-81
2024/04/20 07:07:40;;;;;;;2.78;1.27;;;;;;;-141.50;100.00;63355.56;5373459;26;20407;-81
2024/04/20 07:10:07;;;;;;;4.82;1.75;;;;;;;-141.50;100.00;63355.56;5375011;26;20313;-82
2024/04/20 07:12:35;;;;;;;2.25;0.90;;;;;;;-141.50;100.00;63355.56;5364538;26;20004;-83
2024/04/20 07:15:12;;;;;;;1.75;1.15;;;;;;;-141.50;100.00;63355.56;5363687;26;20432;-80
2024/04/20 07:17:48;;;;;;;2.17;1.02;;;;;;;-141.50;100.00;63355.56;5328677;26;20008;-81
2024/04/20 07:20:23;;;;;;;2.10;1.00;;;;;;;-141.50;100.00;63355.56;5354988;26;20012;-80
2024/04/20 07:22:55;;;;;;;2.95;1.48;;;;;;;-141.50;100.00;63355.56;5358367;26;20004;-82
2024/04/20 07:25:40;;;;;;;1.92;1.10;;;;;;;-141.50;100.00;63355.56;5348852;26;20011;-81
2024/04/20 07:28:16;;;;;;;0.82;0.60;;;;;;;-141.50;100.00;63355.56;5342143;26;20008;-80
2024/04/20 07:30:47;;;;;;;1.65;0.90;;;;;;;-141.50;100.00;63355.56;5352716;26;20012;-82
2024/04/20 07:33:22;;;;;;;1.73;1.00;;;;;;;-141.50;100.00;63355.56;5317220;26;20046;-77
2024/04/20 07:35:59;;;;;;;2.38;0.90;;;;;;;-141.50;100.00;63355.56;5315572;26;20296;-79
2024/04/20 07:38:34;;;;;;;2.25;1.27;;;;;;;-141.50;100.00;63355.56;5340204;26;20013;-78
2024/04/20 07:41:03;;;;;;;1.73;1.00;;;;;;;-141.50;100.00;63355.56;5353572;26;20004;-80
2024/04/20 07:43:31;;;;;;;1.65;0.80;;;;;;;-141.50;100.00;63355.56;5365506;26;20013;-80
2024/04/20 07:46:04;;;;;;;3.08;0.80;;;;;;;-141.50;100.00;63355.56;5347236;26;20056;-80
2024/04/20 07:48:49;;;;;;;1.20;0.80;;;;;;;-141.50;100.00;63355.56;5345253;26;20008;-78
2024/04/20 07:51:21;;;;;;;2.85;0.80;;;;;;;-141.50;100.00;63355.56;5353660;26;20020;-79
2024/04/20 07:54:03;;;;;;;1.52;0.80;;;;;;;-141.50;100.00;63355.56;5391676;26;20466;-78
2024/04/20 07:56:40;;;;;;;1.23;0.85;;;;;;;-141.50;100.00;63355.56;5289539;26;20322;-80
2024/04/20 07:59:10;;;;;;;1.33;0.63;;;;;;;-141.50;100.00;63355.56;5351421;26;20130;-78
2024/04/20 08:01:41;;;;;;;1.70;0.90;;;;;;;-141.50;100.00;63355.56;5362728;26;20016;-80
2024/04/20 08:04:10;;;;;;;0.98;0.75;;;;;;;-141.50;100.00;63355.56;5374845;26;20007;-79
2024/04/20 08:06:37;;;;;;;1.75;0.90;;;;;;;-141.50;100.00;63355.56;5344435;26;20267;-81
2024/04/20 08:09:04;;;;;;;1.67;0.90;;;;;;;-141.50;100.00;63355.56;5373141;26;20000;-82
2024/04/20 08:11:32;;;;;;;2.10;1.00;;;;;;;-141.50;100.00;63355.56;5358934;26;20012;-81
2024/04/20 08:13:59;;;;;;;2.63;0.82;;;;;;;-141.50;100.00;63355.56;5358790;26;20016;-82
2024/04/20 08:16:26;;;;;;;3.92;0.90;;;;;;;-141.50;100.00;63355.56;5353825;26;20013;-82
2024/04/20 08:18:53;;;;;;;2.08;0.90;;;;;;;-141.50;100.00;63355.56;5374633;26;20000;-82
2024/04/20 08:21:23;;;;;;;4.50;1.05;;;;;;;-141.50;100.00;63355.56;5363972;26;20039;-83
2024/04/20 08:23:50;;;;;;;2.20;1.00;;;;;;;-141.50;100.00;63355.56;5369587;26;20301;-82
2024/04/20 08:26:18;;;;;;;3.83;1.55;;;;;;;-141.50;100.00;63355.56;5358743;26;20008;-81
2024/04/20 08:28:45;;;;;;;1.05;0.80;;;;;;;-141.50;100.00;63355.56;5365837;26;20008;-81
2024/04/20 08:31:12;;;;;;;1.60;0.90;;;;;;;-141.50;100.00;63355.56;5352239;26;20005;-81
2024/04/20 08:33:39;;;;;;;2.45;1.15;;;;;;;-141.50;100.00;63355.56;5371699;26;20008;-80
2024/04/20 08:36:07;;;;;;;2.08;0.93;;;;;;;-141.50;100.00;63355.56;5358850;26;20228;-81
2024/04/20 08:38:34;;;;;;;1.88;0.93;;;;;;;-141.50;100.00;63355.56;5361155;26;20000;-80
2024/04/20 08:41:04;;;;;;;1.42;0.73;;;;;;;-141.50;100.00;63355.56;5369405;26;20012;-81
2024/04/20 08:43:32;;;;;;;2.55;1.23;;;;;;;-141.50;100.00;63355.56;5366950;26;20009;-80
2024/04/20 08:46:04;;;;;;;2.58;1.10;;;;;;;-141.50;100.00;63355.56;5375069;26;20019;-80
2024/04/20 08:48:32;;;;;;;3.03;1.10;;;;;;;-141.50;100.00;63355.56;5364174;26;20011;-81
2024/04/20 08:51:04;;;;;;;2.25;1.10;;;;;;;-141.50;100.00;63355.56;5365995;26;20467;-80
2024/04/20 08:53:34;;;;;;;2.67;1.30;;;;;;;-141.50;100.00;63355.56;5362645;26;20004;-80
2024/04/20 08:56:03;;;;;;;2.30;1.08;;;;;;;-141.50;100.00;63355.56;5356192;26;20346;-80
2024/04/20 08:58:32;;;;;;;2.58;1.20;;;;;;;-141.50;100.00;63355.56;5370042;26;20029;-80
2024/04/20 09:01:01;;;;;;;2.35;1.20;;;;;;;-141.50;100.00;63355.56;5373242;26;20015;-81
2024/04/20 09:03:28;;;;;;;2.72;1.20;;;;;;;-141.50;100.00;63355.56;5366560;26;20019;-81
2024/04/20 09:05:57;;;;;;;2.05;1.20;;;;;;;-141.50;100.00;63355.56;5372248;26;20019;-81
2024/04/20 09:08:24;;;;;;;2.42;1.10;;;;;;;-141.50;100.00;63355.56;5371459;26;20015;-82
2024/04/20 09:10:52;;;;;;;4.88;1.20;;;;;;;-141.50;100.00;63355.56;5364013;26;20013;-83
2024/04/20 09:13:20;;;;;;;2.83;1.20;;;;;;;-141.50;100.00;63355.56;5364949;26;20057;-80
2024/04/20 09:15:48;;;;;;;4.05;0.98;;;;;;;-141.50;100.00;63355.56;5372549;26;20008;-84
2024/04/20 09:18:19;;;;;;;2.88;1.60;;;;;;;-141.50;100.00;63355.56;5360588;26;20036;-80
2024/04/20 09:20:50;;;;;;;3.72;1.15;;;;;;;-141.50;100.00;63355.56;5344409;26;20008;-81
2024/04/20 09:23:22;;;;;;;1.90;1.20;;;;;;;-141.50;100.00;63355.56;5370651;26;20008;-81
2024/04/20 09:25:51;;;;;;;2.83;1.30;;;;;;;-141.50;100.00;63355.56;5329832;26;20009;-82
2024/04/20 09:28:35;;;;;;;2.83;1.30;;;;;;;-141.50;100.00;63355.56;5355179;26;20015;-81
2024/04/20 09:31:05;;;;;;;3.95;1.20;;;;;;;-141.50;100.00;63355.56;5370451;26;20399;-80
2024/04/20 09:33:32;;;;;;;3.63;1.15;;;;;;;-141.50;100.00;63355.56;5353229;26;20051;-85
2024/04/20 09:36:03;;;;;;;1.70;0.85;;;;;;;-141.50;100.00;63355.56;5353859;26;20062;-81
2024/04/20 09:38:31;;;;;;;2.38;1.27;;;;;;;-141.50;100.00;63355.56;5367461;26;20127;-82
2024/04/20 09:41:00;;;;;;;5.32;1.83;;;;;;;-141.50;100.00;63355.56;5363153;26;20426;-82
2024/04/20 09:43:28;;;;;;;3.97;1.73;;;;;;;-141.50;100.00;63355.56;5327702;26;20004;-78
2024/04/20 09:45:57;;;;;;;1.63;1.00;;;;;;;-141.50;100.00;63355.56;5353875;26;20009;-80
2024/04/20 09:48:31;;;;;;;2.63;1.00;;;;;;;-141.50;100.00;63355.56;5364011;26;20004;-83
2024/04/20 09:51:11;;;;;;;5.35;1.00;;;;;;;-141.50;100.00;63355.56;5329632;26;20328;-82
2024/04/20 09:53:39;;;;;;;2.38;0.80;;;;;;;-141.50;100.00;63355.56;5359213;26;20032;-79
2024/04/20 09:56:07;;;;;;;1.40;0.60;;;;;;;-141.50;100.00;63355.56;5330548;26;20015;-79
2024/04/20 09:58:39;;;;;;;2.08;0.68;;;;;;;-141.50;100.00;63355.56;5362594;26;20106;-81
2024/04/20 10:01:07;;;;;;;1.92;0.70;;;;;;;-141.50;100.00;63355.56;5375726;26;20004;-82
2024/04/20 10:03:37;;;;;;;2.72;0.90;;;;;;;-141.50;100.00;63355.56;5356318;26;20017;-83
2024/04/20 10:06:07;;;;;;;2.03;0.80;;;;;;;-141.50;100.00;63355.56;5353618;26;20001;-81
2024/04/20 10:08:35;;;;;;;1.60;0.80;;;;;;;-141.50;100.00;63355.56;5372177;26;20031;-82
2024/04/20 10:11:05;;;;;;;2.30;0.80;;;;;;;-141.50;100.00;63355.56;5366388;26;20005;-83
2024/04/20 10:13:36;;;;;;;1.60;0.68;;;;;;;-141.50;100.00;63355.56;5361599;26;20008;-82
2024/04/20 10:16:05;;;;;;;3.83;0.98;;;;;;;-141.50;100.00;63355.56;5356248;26;20001;-83
2024/04/20 10:18:32;;;;;;;0.98;0.60;;;;;;;-141.50;100.00;63355.56;5365858;26;20019;-81
2024/04/20 10:21:00;;;;;;;2.78;0.95;;;;;;;-141.50;100.00;63355.56;5355489;26;20442;-82
2024/04/20 10:23:29;;;;;;;1.05;0.57;;;;;;;-141.50;100.00;63355.56;5356581;26;20055;-82
2024/04/20 10:25:56;;;;;;;2.97;0.90;;;;;;;-141.50;100.00;63355.56;5353630;26;20004;-82
2024/04/20 10:28:30;;;;;;;1.67;0.90;;;;;;;-141.50;100.00;63355.56;5371825;26;20023;-82
2024/04/20 10:31:00;;;;;;;1.98;0.85;;;;;;;-141.50;100.00;63355.56;5365859;26;20102;-81
2024/04/20 10:33:32;;;;;;;1.92;0.90;;;;;;;-141.50;100.00;63355.56;5346686;26;20005;-81
2024/04/20 10:36:08;;;;;;;0.90;0.55;;;;;;;-141.50;100.00;63355.56;5365561;26;20010;-81
2024/04/20 10:38:36;;;;;;;2.25;0.98;;;;;;;-141.50;100.00;63355.56;5369551;26;20008;-79
2024/04/20 10:41:10;;;;;;;1.50;1.00;;;;;;;-141.50;100.00;63355.56;5373522;26;20000;-79
2024/04/20 10:43:37;;;;;;;1.40;0.80;;;;;;;-141.50;100.00;63355.56;5353528;26;20361;-84
2024/04/20 10:46:05;;;;;;;1.85;0.90;;;;;;;-141.50;100.00;63355.56;5359705;26;20712;-79
2024/04/20 10:48:33;;;;;;;2.30;1.00;;;;;;;-141.50;100.00;63355.56;5342474;26;20004;-80
2024/04/20 10:51:04;;;;;;;1.77;0.90;;;;;;;-141.50;100.00;63355.56;5374154;26;19996;-78
2024/04/20 10:53:31;;;;;;;2.33;1.15;;;;;;;-141.50;100.00;63355.56;5368044;26;20008;-81
2024/04/20 10:56:00;;;;;;;1.92;0.90;;;;;;;-141.50;100.00;63355.56;5369876;26;19996;-78
2024/04/20 10:58:27;;;;;;;3.40;1.10;;;;;;;-141.50;100.00;63355.56;5359950;26;20056;-78
2024/04/20 11:01:01;;;;;;;2.25;0.95;;;;;;;-141.50;100.00;63355.56;5369507;26;20016;-78
2024/04/20 11:03:31;;;;;;;2.05;0.93;;;;;;;-141.50;100.00;63355.56;5368578;26;20027;-82
2024/04/20 11:06:00;;;;;;;3.25;1.13;;;;;;;-141.50;100.00;63355.56;5350629;26;20004;-78
2024/04/20 11:08:28;;;;;;;3.13;1.35;;;;;;;-141.50;100.00;63355.56;5369913;26;20004;-79
2024/04/20 11:11:03;;;;;;;3.75;1.10;;;;;;;-141.50;100.00;63355.56;5361392;26;20003;-81
2024/04/20 11:13:32;;;;;;;4.35;1.60;;;;;;;-141.50;100.00;63355.56;5343346;26;20012;-81
2024/04/20 11:15:59;;;;;;;1.15;0.80;;;;;;;-141.50;100.00;63355.56;5365170;26;20080;-80